sensor_id;sensor_type;location;lat;lon;timestamp;pressure;altitude;pressure_sealevel;temperature;humidity
33185;BME280;19550;42.872;25.494;2023-04-29T00:00:28;96603.41;;;2.51;100.00
33185;BME280;19550;42.872;25.494;2023-04-29T00:02:56;96600.91;;;2.45;100.00
33185;BME280;19550;42.872;25.494;2023-04-29T00:05:23;96603.28;;;2.31;100.00
33185;BME280;19550;42.872;25.494;2023-04-29T00:07:50;96604.38;;;2.35;100.00
33185;BME280;19550;42.872;25.494;2023-04-29T00:10:17;96608.75;;;2.31;100.00
33185;BME280;19550;42.872;25.494;2023-04-29T00:12:44;96603.59;;;2.39;100.00
33185;BME280;19550;42.872;25.494;2023-04-29T00:15:11;96601.00;;;2.18;100.00
33185;BME280;19550;42.872;25.494;2023-04-29T00:17:37;96605.41;;;2.24;100.00
33185;BME280;19550;42.872;25.494;2023-04-29T00:20:07;96598.88;;;2.25;100.00
33185;BME280;19550;42.872;25.494;2023-04-29T00:22:34;96602.44;;;2.30;100.00
33185;BME280;19550;42.872;25.494;2023-04-29T00:25:01;96612.34;;;2.36;100.00
33185;BME280;19550;42.872;25.494;2023-04-29T00:27:28;96609.84;;;2.35;100.00
33185;BME280;19550;42.872;25.494;2023-04-29T00:29:55;96598.63;;;2.31;100.00
33185;BME280;19550;42.872;25.494;2023-04-29T00:32:22;96607.16;;;2.40;100.00
33185;BME280;19550;42.872;25.494;2023-04-29T00:34:49;96609.63;;;2.42;100.00
33185;BME280;19550;42.872;25.494;2023-04-29T00:37:17;96605.47;;;2.34;100.00
33185;BME280;19550;42.872;25.494;2023-04-29T00:39:44;96601.41;;;2.36;100.00
33185;BME280;19550;42.872;25.494;2023-04-29T00:42:11;96605.53;;;2.39;100.00
33185;BME280;19550;42.872;25.494;2023-04-29T00:44:38;96599.47;;;2.32;100.00
33185;BME280;19550;42.872;25.494;2023-04-29T00:47:04;96594.47;;;2.24;100.00
33185;BME280;19550;42.872;25.494;2023-04-29T00:49:36;96604.59;;;2.23;100.00
33185;BME280;19550;42.872;25.494;2023-04-29T00:52:03;96592.84;;;2.28;100.00
33185;BME280;19550;42.872;25.494;2023-04-29T00:54:33;96589.25;;;2.22;100.00
33185;BME280;19550;42.872;25.494;2023-04-29T00:57:00;96589.50;;;2.16;100.00
33185;BME280;19550;42.872;25.494;2023-04-29T00:59:28;96591.16;;;2.17;100.00
33185;BME280;19550;42.872;25.494;2023-04-29T01:01:58;96586.28;;;2.24;100.00
33185;BME280;19550;42.872;25.494;2023-04-29T01:04:25;96584.28;;;2.14;100.00
33185;BME280;19550;42.872;25.494;2023-04-29T01:07:00;96578.50;;;2.06;100.00
33185;BME280;19550;42.872;25.494;2023-04-29T01:09:42;96578.72;;;1.99;100.00
33185;BME280;19550;42.872;25.494;2023-04-29T01:12:17;96568.59;;;1.99;100.00
33185;BME280;19550;42.872;25.494;2023-04-29T01:14:53;96569.38;;;1.95;100.00
33185;BME280;19550;42.872;25.494;2023-04-29T01:17:24;96562.22;;;1.89;100.00
33185;BME280;19550;42.872;25.494;2023-04-29T01:19:54;96567.28;;;2.07;100.00
33185;BME280;19550;42.872;25.494;2023-04-29T01:22:22;96562.09;;;2.06;100.00
33185;BME280;19550;42.872;25.494;2023-04-29T01:24:50;96565.09;;;2.04;100.00
33185;BME280;19550;42.872;25.494;2023-04-29T01:27:26;96561.78;;;2.02;100.00
33185;BME280;19550;42.872;25.494;2023-04-29T01:29:58;96562.63;;;2.08;100.00
33185;BME280;19550;42.872;25.494;2023-04-29T01:32:36;96556.56;;;2.00;100.00
33185;BME280;19550;42.872;25.494;2023-04-29T01:35:12;96558.00;;;2.08;100.00
33185;BME280;19550;42.872;25.494;2023-04-29T01:37:48;96553.63;;;2.07;100.00
33185;BME280;19550;42.872;25.494;2023-04-29T01:40:22;96554.91;;;1.94;100.00
33185;BME280;19550;42.872;25.494;2023-04-29T01:42:57;96552.16;;;1.94;100.00
33185;BME280;19550;42.872;25.494;2023-04-29T01:45:26;96555.16;;;1.93;100.00
33185;BME280;19550;42.872;25.494;2023-04-29T01:47:54;96552.63;;;1.86;100.00
33185;BME280;19550;42.872;25.494;2023-04-29T01:50:21;96550.94;;;1.80;100.00
33185;BME280;19550;42.872;25.494;2023-04-29T01:52:48;96528.25;;;1.75;100.00
33185;BME280;19550;42.872;25.494;2023-04-29T01:55:15;96550.41;;;1.78;100.00
33185;BME280;19550;42.872;25.494;2023-04-29T01:57:43;96542.00;;;1.85;100.00
33185;BME280;19550;42.872;25.494;2023-04-29T02:00:10;96541.72;;;1.86;100.00
33185;BME280;19550;42.872;25.494;2023-04-29T02:02:37;96543.59;;;1.81;100.00
33185;BME280;19550;42.872;25.494;2023-04-29T02:05:05;96543.81;;;1.74;100.00
33185;BME280;19550;42.872;25.494;2023-04-29T02:07:32;96542.75;;;1.80;100.00
33185;BME280;19550;42.872;25.494;2023-04-29T02:09:59;96539.75;;;1.77;100.00
33185;BME280;19550;42.872;25.494;2023-04-29T02:12:25;96544.34;;;1.71;100.00
33185;BME280;19550;42.872;25.494;2023-04-29T02:14:53;96541.06;;;1.74;100.00
33185;BME280;19550;42.872;25.494;2023-04-29T02:17:20;96543.56;;;1.76;100.00
33185;BME280;19550;42.872;25.494;2023-04-29T02:19:47;96544.03;;;1.68;100.00
33185;BME280;19550;42.872;25.494;2023-04-29T02:22:14;96543.34;;;1.50;100.00
33185;BME280;19550;42.872;25.494;2023-04-29T02:24:41;96547.94;;;1.45;100.00
33185;BME280;19550;42.872;25.494;2023-04-29T02:27:08;96541.69;;;1.49;100.00
33185;BME280;19550;42.872;25.494;2023-04-29T02:29:34;96535.06;;;1.40;100.00
33185;BME280;19550;42.872;25.494;2023-04-29T02:32:03;96534.84;;;1.47;100.00
33185;BME280;19550;42.872;25.494;2023-04-29T02:34:30;96534.38;;;1.55;100.00
33185;BME280;19550;42.872;25.494;2023-04-29T02:36:57;96526.72;;;1.52;100.00
33185;BME280;19550;42.872;25.494;2023-04-29T02:39:24;96529.72;;;1.55;100.00
33185;BME280;19550;42.872;25.494;2023-04-29T02:41:53;96535.75;;;1.57;100.00
33185;BME280;19550;42.872;25.494;2023-04-29T02:44:20;96529.25;;;1.64;100.00
33185;BME280;19550;42.872;25.494;2023-04-29T02:46:47;96529.81;;;1.66;100.00
33185;BME280;19550;42.872;25.494;2023-04-29T02:49:15;96529.50;;;1.62;100.00
33185;BME280;19550;42.872;25.494;2023-04-29T02:51:42;96534.97;;;1.62;100.00
33185;BME280;19550;42.872;25.494;2023-04-29T02:54:09;96528.41;;;1.58;100.00
33185;BME280;19550;42.872;25.494;2023-04-29T02:56:36;96516.06;;;1.55;100.00
33185;BME280;19550;42.872;25.494;2023-04-29T02:59:03;96517.75;;;1.62;100.00
33185;BME280;19550;42.872;25.494;2023-04-29T03:01:29;96519.97;;;1.65;100.00
33185;BME280;19550;42.872;25.494;2023-04-29T03:03:56;96520.19;;;1.58;100.00
33185;BME280;19550;42.872;25.494;2023-04-29T03:06:24;96514.09;;;1.46;100.00
33185;BME280;19550;42.872;25.494;2023-04-29T03:08:52;96518.72;;;1.45;100.00
33185;BME280;19550;42.872;25.494;2023-04-29T03:11:19;96514.38;;;1.49;100.00
33185;BME280;19550;42.872;25.494;2023-04-29T03:13:48;96522.28;;;1.46;100.00
33185;BME280;19550;42.872;25.494;2023-04-29T03:16:15;96512.47;;;1.50;100.00
33185;BME280;19550;42.872;25.494;2023-04-29T03:18:42;96519.50;;;1.41;100.00
33185;BME280;19550;42.872;25.494;2023-04-29T03:21:09;96525.06;;;1.51;100.00
33185;BME280;19550;42.872;25.494;2023-04-29T03:23:37;96524.63;;;1.64;100.00
33185;BME280;19550;42.872;25.494;2023-04-29T03:26:05;96526.97;;;1.50;100.00
33185;BME280;19550;42.872;25.494;2023-04-29T03:28:32;96528.88;;;1.50;100.00
33185;BME280;19550;42.872;25.494;2023-04-29T03:30:58;96528.06;;;1.54;100.00
33185;BME280;19550;42.872;25.494;2023-04-29T03:33:26;96527.34;;;1.64;100.00
33185;BME280;19550;42.872;25.494;2023-04-29T03:35:53;96521.78;;;1.54;100.00
33185;BME280;19550;42.872;25.494;2023-04-29T03:38:20;96522.09;;;1.57;100.00
33185;BME280;19550;42.872;25.494;2023-04-29T03:40:48;96533.38;;;1.66;100.00
33185;BME280;19550;42.872;25.494;2023-04-29T03:43:15;96529.09;;;1.80;100.00
33185;BME280;19550;42.872;25.494;2023-04-29T03:45:41;96533.56;;;1.91;100.00
33185;BME280;19550;42.872;25.494;2023-04-29T03:48:08;96533.06;;;1.99;100.00
33185;BME280;19550;42.872;25.494;2023-04-29T03:50:36;96536.34;;;1.96;100.00
33185;BME280;19550;42.872;25.494;2023-04-29T03:53:03;96537.66;;;1.94;100.00
33185;BME280;19550;42.872;25.494;2023-04-29T03:55:30;96532.28;;;2.04;100.00
33185;BME280;19550;42.872;25.494;2023-04-29T03:57:58;96542.16;;;2.10;100.00
33185;BME280;19550;42.872;25.494;2023-04-29T04:00:25;96541.38;;;2.20;100.00
33185;BME280;19550;42.872;25.494;2023-04-29T04:02:55;96533.81;;;2.32;100.00
33185;BME280;19550;42.872;25.494;2023-04-29T04:05:22;96544.34;;;2.60;100.00
33185;BME280;19550;42.872;25.494;2023-04-29T04:07:49;96542.00;;;2.79;100.00
33185;BME280;19550;42.872;25.494;2023-04-29T04:10:16;96542.00;;;2.79;100.00
33185;BME280;19550;42.872;25.494;2023-04-29T04:12:43;96539.25;;;2.84;100.00
33185;BME280;19550;42.872;25.494;2023-04-29T04:15:13;96539.03;;;2.96;100.00
33185;BME280;19550;42.872;25.494;2023-04-29T04:17:41;96544.81;;;3.04;100.00
33185;BME280;19550;42.872;25.494;2023-04-29T04:20:08;96534.94;;;3.03;100.00
33185;BME280;19550;42.872;25.494;2023-04-29T04:22:35;96534.94;;;3.13;100.00
33185;BME280;19550;42.872;25.494;2023-04-29T04:25:02;96538.81;;;3.23;100.00
33185;BME280;19550;42.872;25.494;2023-04-29T04:27:29;96536.91;;;3.23;100.00
33185;BME280;19550;42.872;25.494;2023-04-29T04:29:56;96527.91;;;3.38;100.00
33185;BME280;19550;42.872;25.494;2023-04-29T04:32:25;96530.09;;;3.56;100.00
33185;BME280;19550;42.872;25.494;2023-04-29T04:34:52;96529.28;;;3.71;100.00
33185;BME280;19550;42.872;25.494;2023-04-29T04:37:19;96523.53;;;3.82;100.00
33185;BME280;19550;42.872;25.494;2023-04-29T04:39:46;96523.78;;;3.81;100.00
33185;BME280;19550;42.872;25.494;2023-04-29T04:42:13;96515.53;;;4.06;100.00
33185;BME280;19550;42.872;25.494;2023-04-29T04:44:40;96519.06;;;4.27;100.00
33185;BME280;19550;42.872;25.494;2023-04-29T04:47:07;96528.94;;;4.38;100.00
33185;BME280;19550;42.872;25.494;2023-04-29T04:49:35;96528.66;;;4.34;100.00
33185;BME280;19550;42.872;25.494;2023-04-29T04:52:02;96517.94;;;4.43;100.00
33185;BME280;19550;42.872;25.494;2023-04-29T04:54:29;96524.50;;;4.52;100.00
33185;BME280;19550;42.872;25.494;2023-04-29T04:56:56;96521.97;;;4.66;100.00
33185;BME280;19550;42.872;25.494;2023-04-29T04:59:22;96528.75;;;4.89;100.00
33185;BME280;19550;42.872;25.494;2023-04-29T05:01:49;96531.16;;;5.00;100.00
33185;BME280;19550;42.872;25.494;2023-04-29T05:04:16;96535.22;;;5.13;100.00
33185;BME280;19550;42.872;25.494;2023-04-29T05:06:44;96529.09;;;5.26;100.00
33185;BME280;19550;42.872;25.494;2023-04-29T05:09:11;96529.84;;;5.42;100.00
33185;BME280;19550;42.872;25.494;2023-04-29T05:11:38;96533.84;;;5.59;100.00
33185;BME280;19550;42.872;25.494;2023-04-29T05:14:06;96536.06;;;5.96;100.00
33185;BME280;19550;42.872;25.494;2023-04-29T05:16:33;96535.59;;;6.18;100.00
33185;BME280;19550;42.872;25.494;2023-04-29T05:18:59;96535.44;;;6.33;100.00
33185;BME280;19550;42.872;25.494;2023-04-29T05:21:26;96534.63;;;6.33;100.00
33185;BME280;19550;42.872;25.494;2023-04-29T05:23:54;96532.56;;;6.20;100.00
33185;BME280;19550;42.872;25.494;2023-04-29T05:26:22;96525.75;;;6.12;100.00
33185;BME280;19550;42.872;25.494;2023-04-29T05:28:48;96523.25;;;6.16;100.00
33185;BME280;19550;42.872;25.494;2023-04-29T05:31:15;96524.28;;;6.25;100.00
33185;BME280;19550;42.872;25.494;2023-04-29T05:33:42;96525.03;;;6.30;100.00
33185;BME280;19550;42.872;25.494;2023-04-29T05:36:09;96522.22;;;6.35;100.00
33185;BME280;19550;42.872;25.494;2023-04-29T05:38:35;96522.78;;;6.61;100.00
33185;BME280;19550;42.872;25.494;2023-04-29T05:41:04;96508.44;;;6.64;100.00
33185;BME280;19550;42.872;25.494;2023-04-29T05:43:31;96505.84;;;6.73;100.00
33185;BME280;19550;42.872;25.494;2023-04-29T05:45:57;96509.78;;;6.91;100.00
33185;BME280;19550;42.872;25.494;2023-04-29T05:48:24;96510.22;;;6.98;100.00
33185;BME280;19550;42.872;25.494;2023-04-29T05:50:51;96507.34;;;7.08;100.00
33185;BME280;19550;42.872;25.494;2023-04-29T05:53:18;96494.38;;;7.27;100.00
33185;BME280;19550;42.872;25.494;2023-04-29T05:55:45;96504.06;;;7.62;100.00
33185;BME280;19550;42.872;25.494;2023-04-29T05:58:13;96496.31;;;8.15;100.00
33185;BME280;19550;42.872;25.494;2023-04-29T06:00:40;96503.47;;;8.49;100.00
33185;BME280;19550;42.872;25.494;2023-04-29T06:03:08;96500.63;;;8.81;98.99
33185;BME280;19550;42.872;25.494;2023-04-29T06:05:35;96505.00;;;9.23;97.43
33185;BME280;19550;42.872;25.494;2023-04-29T06:08:03;96500.78;;;9.26;94.76
33185;BME280;19550;42.872;25.494;2023-04-29T06:10:30;96499.88;;;9.30;95.54
33185;BME280;19550;42.872;25.494;2023-04-29T06:12:57;96493.81;;;9.64;93.10
33185;BME280;19550;42.872;25.494;2023-04-29T06:15:26;96490.41;;;9.81;92.94
33185;BME280;19550;42.872;25.494;2023-04-29T06:17:53;96490.72;;;10.02;92.10
33185;BME280;19550;42.872;25.494;2023-04-29T06:20:20;96488.00;;;10.32;91.46
33185;BME280;19550;42.872;25.494;2023-04-29T06:22:46;96491.75;;;10.59;89.54
33185;BME280;19550;42.872;25.494;2023-04-29T06:25:14;96481.44;;;10.82;88.57
33185;BME280;19550;42.872;25.494;2023-04-29T06:27:40;96477.88;;;10.98;84.11
33185;BME280;19550;42.872;25.494;2023-04-29T06:30:08;96484.78;;;11.09;83.18
33185;BME280;19550;42.872;25.494;2023-04-29T06:32:37;96479.13;;;11.23;80.25
33185;BME280;19550;42.872;25.494;2023-04-29T06:35:05;96477.00;;;11.37;80.99
33185;BME280;19550;42.872;25.494;2023-04-29T06:37:32;96477.50;;;11.39;79.19
33185;BME280;19550;42.872;25.494;2023-04-29T06:39:59;96477.34;;;11.53;77.77
33185;BME280;19550;42.872;25.494;2023-04-29T06:42:26;96476.91;;;11.77;78.48
33185;BME280;19550;42.872;25.494;2023-04-29T06:44:53;96473.81;;;11.96;79.67
33185;BME280;19550;42.872;25.494;2023-04-29T06:47:20;96465.78;;;12.11;78.91
33185;BME280;19550;42.872;25.494;2023-04-29T06:49:48;96459.66;;;12.44;77.70
33185;BME280;19550;42.872;25.494;2023-04-29T06:52:15;96457.97;;;12.68;76.59
33185;BME280;19550;42.872;25.494;2023-04-29T06:54:42;96455.06;;;12.94;75.36
33185;BME280;19550;42.872;25.494;2023-04-29T06:57:09;96458.69;;;13.24;72.97
33185;BME280;19550;42.872;25.494;2023-04-29T06:59:35;96448.84;;;13.35;64.50
33185;BME280;19550;42.872;25.494;2023-04-29T07:02:02;96449.66;;;13.57;56.40
33185;BME280;19550;42.872;25.494;2023-04-29T07:04:29;96440.47;;;13.77;57.16
33185;BME280;19550;42.872;25.494;2023-04-29T07:06:57;96441.34;;;13.89;55.63
33185;BME280;19550;42.872;25.494;2023-04-29T07:09:25;96447.06;;;14.14;54.45
33185;BME280;19550;42.872;25.494;2023-04-29T07:11:53;96450.56;;;14.23;54.42
33185;BME280;19550;42.872;25.494;2023-04-29T07:14:20;96452.44;;;14.31;51.43
33185;BME280;19550;42.872;25.494;2023-04-29T07:16:52;96445.34;;;14.42;53.00
33185;BME280;19550;42.872;25.494;2023-04-29T07:19:20;96440.03;;;14.61;53.29
33185;BME280;19550;42.872;25.494;2023-04-29T07:21:46;96437.59;;;14.60;51.29
33185;BME280;19550;42.872;25.494;2023-04-29T07:24:15;96440.16;;;14.65;50.92
33185;BME280;19550;42.872;25.494;2023-04-29T07:26:42;96436.19;;;14.66;48.89
33185;BME280;19550;42.872;25.494;2023-04-29T07:29:09;96437.72;;;14.76;50.69
33185;BME280;19550;42.872;25.494;2023-04-29T07:31:36;96433.97;;;14.59;50.59
33185;BME280;19550;42.872;25.494;2023-04-29T07:34:03;96435.19;;;14.95;50.85
33185;BME280;19550;42.872;25.494;2023-04-29T07:36:30;96440.53;;;15.12;48.79
33185;BME280;19550;42.872;25.494;2023-04-29T07:38:57;96435.41;;;15.26;50.05
33185;BME280;19550;42.872;25.494;2023-04-29T07:41:26;96427.28;;;15.33;49.29
33185;BME280;19550;42.872;25.494;2023-04-29T07:43:53;96436.91;;;15.48;48.33
33185;BME280;19550;42.872;25.494;2023-04-29T07:46:19;96436.19;;;15.75;50.37
33185;BME280;19550;42.872;25.494;2023-04-29T07:48:46;96425.03;;;15.75;48.09
33185;BME280;19550;42.872;25.494;2023-04-29T07:51:13;96418.84;;;15.82;48.98
33185;BME280;19550;42.872;25.494;2023-04-29T07:53:40;96431.19;;;15.81;47.71
33185;BME280;19550;42.872;25.494;2023-04-29T07:56:08;96424.16;;;15.87;47.17
33185;BME280;19550;42.872;25.494;2023-04-29T07:58:36;96419.09;;;16.05;49.63
33185;BME280;19550;42.872;25.494;2023-04-29T08:01:06;96421.34;;;16.27;49.12
33185;BME280;19550;42.872;25.494;2023-04-29T08:03:34;96417.50;;;15.92;46.92
33185;BME280;19550;42.872;25.494;2023-04-29T08:06:01;96403.59;;;16.35;49.38
33185;BME280;19550;42.872;25.494;2023-04-29T08:08:29;96405.22;;;16.52;47.37
33185;BME280;19550;42.872;25.494;2023-04-29T08:10:56;96416.75;;;16.78;48.21
33185;BME280;19550;42.872;25.494;2023-04-29T08:13:23;96406.56;;;16.58;46.33
33185;BME280;19550;42.872;25.494;2023-04-29T08:15:51;96396.78;;;16.64;45.79
33185;BME280;19550;42.872;25.494;2023-04-29T08:18:18;96398.59;;;16.88;46.51
33185;BME280;19550;42.872;25.494;2023-04-29T08:20:46;96391.63;;;17.13;47.76
33185;BME280;19550;42.872;25.494;2023-04-29T08:23:13;96383.59;;;17.12;45.08
33185;BME280;19550;42.872;25.494;2023-04-29T08:25:41;96383.34;;;16.85;48.13
33185;BME280;19550;42.872;25.494;2023-04-29T08:28:09;96390.91;;;16.85;47.17
33185;BME280;19550;42.872;25.494;2023-04-29T08:30:37;96385.69;;;16.67;46.45
33185;BME280;19550;42.872;25.494;2023-04-29T08:33:06;96382.88;;;16.83;47.92
33185;BME280;19550;42.872;25.494;2023-04-29T08:35:34;96378.38;;;16.94;46.52
33185;BME280;19550;42.872;25.494;2023-04-29T08:38:03;96377.78;;;17.20;48.14
33185;BME280;19550;42.872;25.494;2023-04-29T08:40:33;96373.59;;;16.95;46.24
33185;BME280;19550;42.872;25.494;2023-04-29T08:43:02;96383.41;;;16.89;47.27
33185;BME280;19550;42.872;25.494;2023-04-29T08:45:29;96375.97;;;17.28;49.40
33185;BME280;19550;42.872;25.494;2023-04-29T08:48:00;96370.66;;;17.58;44.77
33185;BME280;19550;42.872;25.494;2023-04-29T08:50:29;96375.72;;;17.68;46.94
33185;BME280;19550;42.872;25.494;2023-04-29T08:52:57;96378.31;;;17.41;44.66
33185;BME280;19550;42.872;25.494;2023-04-29T08:55:24;96372.31;;;17.43;46.00
33185;BME280;19550;42.872;25.494;2023-04-29T08:57:53;96376.59;;;17.56;47.20
33185;BME280;19550;42.872;25.494;2023-04-29T09:00:20;96373.34;;;17.70;45.59
33185;BME280;19550;42.872;25.494;2023-04-29T09:02:50;96378.69;;;17.75;46.89
33185;BME280;19550;42.872;25.494;2023-04-29T09:05:17;96370.78;;;17.80;47.39
33185;BME280;19550;42.872;25.494;2023-04-29T09:07:45;96372.94;;;17.87;46.89
33185;BME280;19550;42.872;25.494;2023-04-29T09:10:13;96369.00;;;17.92;47.46
33185;BME280;19550;42.872;25.494;2023-04-29T09:12:41;96364.38;;;17.80;48.84
33185;BME280;19550;42.872;25.494;2023-04-29T09:15:09;96365.59;;;17.63;47.54
33185;BME280;19550;42.872;25.494;2023-04-29T09:17:40;96362.06;;;18.05;50.77
33185;BME280;19550;42.872;25.494;2023-04-29T09:20:26;96366.94;;;18.69;49.85
33185;BME280;19550;42.872;25.494;2023-04-29T09:22:56;96369.13;;;18.37;47.02
33185;BME280;19550;42.872;25.494;2023-04-29T09:25:23;96363.00;;;18.32;45.11
33185;BME280;19550;42.872;25.494;2023-04-29T09:27:51;96366.06;;;18.04;47.64
33185;BME280;19550;42.872;25.494;2023-04-29T09:30:19;96368.69;;;17.42;46.53
33185;BME280;19550;42.872;25.494;2023-04-29T09:33:03;96360.94;;;17.71;48.12
33185;BME280;19550;42.872;25.494;2023-04-29T09:35:31;96355.59;;;17.81;47.91
33185;BME280;19550;42.872;25.494;2023-04-29T09:38:13;96358.38;;;18.43;44.73
33185;BME280;19550;42.872;25.494;2023-04-29T09:40:41;96347.09;;;18.81;45.29
33185;BME280;19550;42.872;25.494;2023-04-29T09:43:12;96355.56;;;19.08;43.79
33185;BME280;19550;42.872;25.494;2023-04-29T09:45:41;96352.13;;;18.95;43.16
33185;BME280;19550;42.872;25.494;2023-04-29T09:48:08;96343.44;;;19.03;45.33
33185;BME280;19550;42.872;25.494;2023-04-29T09:50:36;96348.22;;;19.26;41.20
33185;BME280;19550;42.872;25.494;2023-04-29T09:53:03;96344.41;;;19.15;43.15
33185;BME280;19550;42.872;25.494;2023-04-29T09:55:33;96339.41;;;19.27;43.18
33185;BME280;19550;42.872;25.494;2023-04-29T09:58:00;96339.66;;;19.45;43.60
33185;BME280;19550;42.872;25.494;2023-04-29T10:00:30;96337.91;;;19.33;41.68
33185;BME280;19550;42.872;25.494;2023-04-29T10:02:58;96332.56;;;19.02;43.37
33185;BME280;19550;42.872;25.494;2023-04-29T10:05:27;96335.66;;;18.71;42.07
33185;BME280;19550;42.872;25.494;2023-04-29T10:07:56;96337.06;;;18.38;40.98
33185;BME280;19550;42.872;25.494;2023-04-29T10:10:24;96330.91;;;18.97;43.72
33185;BME280;19550;42.872;25.494;2023-04-29T10:12:54;96326.25;;;18.59;41.59
33185;BME280;19550;42.872;25.494;2023-04-29T10:15:25;96336.00;;;18.65;41.58
33185;BME280;19550;42.872;25.494;2023-04-29T10:17:57;96334.09;;;18.96;42.36
33185;BME280;19550;42.872;25.494;2023-04-29T10:20:26;96332.66;;;19.58;43.75
33185;BME280;19550;42.872;25.494;2023-04-29T10:22:54;96329.06;;;19.91;42.33
33185;BME280;19550;42.872;25.494;2023-04-29T10:25:23;96336.22;;;19.85;41.81
33185;BME280;19550;42.872;25.494;2023-04-29T10:27:54;96335.38;;;20.14;38.75
33185;BME280;19550;42.872;25.494;2023-04-29T10:30:21;96331.84;;;19.58;38.52
33185;BME280;19550;42.872;25.494;2023-04-29T10:32:49;96336.19;;;19.29;38.24
33185;BME280;19550;42.872;25.494;2023-04-29T10:35:18;96332.03;;;19.45;38.07
33185;BME280;19550;42.872;25.494;2023-04-29T10:37:47;96327.50;;;19.64;38.10
33185;BME280;19550;42.872;25.494;2023-04-29T10:40:16;96333.34;;;20.11;36.78
33185;BME280;19550;42.872;25.494;2023-04-29T10:42:47;96330.63;;;20.22;38.19
33185;BME280;19550;42.872;25.494;2023-04-29T10:45:23;96327.59;;;20.34;37.62
33185;BME280;19550;42.872;25.494;2023-04-29T10:48:13;96329.19;;;20.02;36.37
33185;BME280;19550;42.872;25.494;2023-04-29T10:50:59;96327.50;;;20.27;36.50
33185;BME280;19550;42.872;25.494;2023-04-29T10:53:27;96333.69;;;20.06;36.51
33185;BME280;19550;42.872;25.494;2023-04-29T10:55:57;96318.69;;;19.65;35.35
33185;BME280;19550;42.872;25.494;2023-04-29T10:58:37;96327.81;;;19.89;37.33
33185;BME280;19550;42.872;25.494;2023-04-29T11:01:06;96322.00;;;20.04;37.76
33185;BME280;19550;42.872;25.494;2023-04-29T11:03:45;96318.69;;;20.69;39.43
33185;BME280;19550;42.872;25.494;2023-04-29T11:06:12;96325.94;;;20.70;38.31
33185;BME280;19550;42.872;25.494;2023-04-29T11:08:39;96320.34;;;20.74;37.45
33185;BME280;19550;42.872;25.494;2023-04-29T11:11:07;96315.28;;;20.93;37.63
33185;BME280;19550;42.872;25.494;2023-04-29T11:13:37;96318.56;;;20.99;37.14
33185;BME280;19550;42.872;25.494;2023-04-29T11:16:06;96305.16;;;20.85;35.87
33185;BME280;19550;42.872;25.494;2023-04-29T11:18:33;96315.09;;;20.72;36.87
33185;BME280;19550;42.872;25.494;2023-04-29T11:21:15;96311.41;;;20.68;35.76
33185;BME280;19550;42.872;25.494;2023-04-29T11:23:42;96314.50;;;20.96;37.75
33185;BME280;19550;42.872;25.494;2023-04-29T11:26:10;96313.19;;;20.83;36.48
33185;BME280;19550;42.872;25.494;2023-04-29T11:28:38;96314.97;;;21.06;34.84
33185;BME280;19550;42.872;25.494;2023-04-29T11:31:08;96313.31;;;21.52;35.53
33185;BME280;19550;42.872;25.494;2023-04-29T11:33:35;96301.47;;;20.81;35.97
33185;BME280;19550;42.872;25.494;2023-04-29T11:36:02;96303.22;;;20.93;35.72
33185;BME280;19550;42.872;25.494;2023-04-29T11:38:30;96299.31;;;21.12;36.49
33185;BME280;19550;42.872;25.494;2023-04-29T11:40:58;96296.59;;;21.22;38.41
33185;BME280;19550;42.872;25.494;2023-04-29T11:43:25;96293.88;;;21.33;37.09
33185;BME280;19550;42.872;25.494;2023-04-29T11:45:52;96306.00;;;21.40;36.68
33185;BME280;19550;42.872;25.494;2023-04-29T11:48:21;96303.09;;;20.79;36.99
33185;BME280;19550;42.872;25.494;2023-04-29T11:50:50;96304.28;;;21.25;35.78
33185;BME280;19550;42.872;25.494;2023-04-29T11:53:18;96290.44;;;21.71;33.74
33185;BME280;19550;42.872;25.494;2023-04-29T11:55:46;96298.50;;;21.11;35.40
33185;BME280;19550;42.872;25.494;2023-04-29T11:58:14;96290.41;;;20.21;36.90
33185;BME280;19550;42.872;25.494;2023-04-29T12:00:41;96286.78;;;20.58;37.92
33185;BME280;19550;42.872;25.494;2023-04-29T12:03:12;96280.84;;;20.67;35.16
33185;BME280;19550;42.872;25.494;2023-04-29T12:05:45;96283.72;;;20.74;35.21
33185;BME280;19550;42.872;25.494;2023-04-29T12:08:12;96280.66;;;20.93;37.92
33185;BME280;19550;42.872;25.494;2023-04-29T12:10:38;96268.31;;;21.12;36.23
33185;BME280;19550;42.872;25.494;2023-04-29T12:13:06;96274.31;;;21.07;35.87
33185;BME280;19550;42.872;25.494;2023-04-29T12:15:33;96264.84;;;20.78;37.15
33185;BME280;19550;42.872;25.494;2023-04-29T12:18:00;96273.66;;;20.32;37.35
33185;BME280;19550;42.872;25.494;2023-04-29T12:20:27;96269.41;;;20.12;39.02
33185;BME280;19550;42.872;25.494;2023-04-29T12:22:56;96275.78;;;19.72;38.46
33185;BME280;19550;42.872;25.494;2023-04-29T12:25:24;96282.00;;;19.28;40.07
33185;BME280;19550;42.872;25.494;2023-04-29T12:27:58;96270.06;;;19.65;40.38
33185;BME280;19550;42.872;25.494;2023-04-29T12:30:25;96265.53;;;19.57;39.59
33185;BME280;19550;42.872;25.494;2023-04-29T12:32:52;96272.34;;;19.86;38.37
33185;BME280;19550;42.872;25.494;2023-04-29T12:35:20;96255.38;;;20.52;39.92
33185;BME280;19550;42.872;25.494;2023-04-29T12:37:47;96248.00;;;21.47;38.07
33185;BME280;19550;42.872;25.494;2023-04-29T12:40:16;96248.84;;;21.54;36.45
33185;BME280;19550;42.872;25.494;2023-04-29T12:42:44;96242.44;;;21.68;36.19
33185;BME280;19550;42.872;25.494;2023-04-29T12:45:25;96239.97;;;21.56;36.66
33185;BME280;19550;42.872;25.494;2023-04-29T12:47:52;96241.25;;;21.00;36.53
33185;BME280;19550;42.872;25.494;2023-04-29T12:50:27;96243.53;;;20.33;39.48
33185;BME280;19550;42.872;25.494;2023-04-29T12:52:55;96241.88;;;19.95;39.79
33185;BME280;19550;42.872;25.494;2023-04-29T12:55:23;96251.19;;;19.65;40.30